Time;durP1;ratioP1;P1;durP2;ratioP2;P2;SDS_P1;SDS_P2;PMS_P1;PMS_P2;Temp;Humidity;BMP_temperature;BMP_pressure;BME280_temperature;BME280_humidity;BME280_pressure;Samples;Min_cycle;Max_cycle;Signal;HPM_P1;HPM_P2
2022/06/22 00:01:05;;;;;;;3.42;2.80;;;;;22.00;101285.00;;;;5034030;28;20207;-78
2022/06/22 00:03:34;;;;;;;6.57;3.60;;;;;22.00;101288.00;;;;5041759;28;20649;-77
2022/06/22 00:06:02;;;;;;;5.35;2.90;;;;;22.00;101289.00;;;;5048629;28;20205;-77
2022/06/22 00:08:34;;;;;;;3.75;2.75;;;;;22.00;101292.00;;;;5048760;28;20192;-77
2022/06/22 00:11:14;;;;;;;4.57;2.78;;;;;21.90;101299.00;;;;5044522;28;20200;-77
2022/06/22 00:13:49;;;;;;;2.92;2.58;;;;;21.90;101294.00;;;;5030116;28;20208;-77
2022/06/22 00:16:19;;;;;;;5.05;2.85;;;;;22.00;101293.00;;;;5043758;28;20707;-77
2022/06/22 00:18:49;;;;;;;2.63;2.38;;;;;22.00;101287.00;;;;5048933;28;20199;-77
2022/06/22 00:21:20;;;;;;;3.60;2.70;;;;;21.90;101279.00;;;;5047672;28;20192;-77
2022/06/22 00:23:50;;;;;;;4.45;2.72;;;;;21.90;101279.00;;;;5048245;28;20238;-77
2022/06/22 00:26:31;;;;;;;4.07;2.92;;;;;21.80;101287.00;;;;5048105;28;20203;-78
2022/06/22 00:29:24;;;;;;;9.25;3.60;;;;;21.70;101286.00;;;;5046109;28;20191;-77
2022/06/22 00:32:16;;;;;;;4.05;2.78;;;;;21.70;101297.00;;;;5023358;28;20203;-77
2022/06/22 00:34:43;;;;;;;2.88;2.38;;;;;21.80;101302.00;;;;5046907;28;20194;-78
2022/06/22 00:37:16;;;;;;;4.35;2.60;;;;;21.70;101297.00;;;;5048332;28;20227;-78
2022/06/22 00:39:46;;;;;;;3.70;2.35;;;;;21.80;101291.00;;;;5043062;28;20200;-78
2022/06/22 00:42:31;;;;;;;4.70;2.47;;;;;21.60;101297.00;;;;5043062;28;20206;-78
2022/06/22 00:45:04;;;;;;;3.92;2.35;;;;;21.70;101289.00;;;;5006082;28;20663;-78
2022/06/22 00:47:33;;;;;;;4.68;2.38;;;;;21.70;101287.00;;;;5011339;28;20215;-78
2022/06/22 00:50:06;;;;;;;3.20;2.30;;;;;21.60;101283.00;;;;5001680;28;20216;-77
2022/06/22 00:52:38;;;;;;;5.28;2.78;;;;;21.60;101276.00;;;;5009993;28;20542;-75
2022/06/22 00:55:17;;;;;;;3.53;3.08;;;;;21.60;101274.00;;;;5010772;28;20211;-75
2022/06/22 00:57:50;;;;;;;4.45;3.20;;;;;21.50;101277.00;;;;4997127;28;20232;-75
2022/06/22 01:00:20;;;;;;;6.13;2.83;;;;;21.50;101275.00;;;;5003939;28;20208;-75
2022/06/22 01:02:53;;;;;;;3.90;3.10;;;;;21.40;101265.00;;;;5005848;28;20209;-75
2022/06/22 01:05:28;;;;;;;4.57;2.88;;;;;21.50;101274.00;;;;4999320;28;20198;-75
2022/06/22 01:08:04;;;;;;;5.10;3.42;;;;;21.40;101274.00;;;;5012707;28;20231;-75
2022/06/22 01:10:38;;;;;;;3.60;2.75;;;;;21.40;101269.00;;;;5012243;28;20670;-75
2022/06/22 01:13:14;;;;;;;4.80;2.95;;;;;21.40;101261.00;;;;5011747;28;20201;-76
2022/06/22 01:15:47;;;;;;;3.70;3.33;;;;;21.30;101255.00;;;;5005750;28;20224;-76
2022/06/22 01:18:20;;;;;;;3.67;2.85;;;;;21.30;101262.00;;;;5011874;28;20725;-75
2022/06/22 01:20:56;;;;;;;4.38;3.85;;;;;21.30;101264.00;;;;5011562;28;20667;-75
2022/06/22 01:23:53;;;;;;;3.85;2.88;;;;;21.10;101250.00;;;;5005935;28;20217;-75
2022/06/22 01:26:35;;;;;;;8.93;3.20;;;;;21.20;101253.00;;;;4989966;28;20292;-75
2022/06/22 01:29:11;;;;;;;6.25;3.15;;;;;21.10;101253.00;;;;4994044;28;20194;-76
2022/06/22 01:31:45;;;;;;;3.75;2.55;;;;;21.10;101257.00;;;;5012042;28;20193;-76
2022/06/22 01:34:17;;;;;;;4.20;3.80;;;;;21.10;101258.00;;;;5008865;28;20259;-75
2022/06/22 01:36:45;;;;;;;6.03;4.85;;;;;21.10;101252.00;;;;5010867;28;20595;-78
2022/06/22 01:39:14;;;;;;;6.57;4.45;;;;;21.10;101248.00;;;;5011040;28;20204;-77
2022/06/22 01:41:46;;;;;;;5.53;4.22;;;;;21.00;101252.00;;;;5010710;28;20212;-77
2022/06/22 01:44:20;;;;;;;4.72;3.55;;;;;21.00;101262.00;;;;5042858;28;20235;-76
2022/06/22 01:47:16;;;;;;;3.53;3.13;;;;;20.90;101272.00;;;;5051174;28;20208;-76
2022/06/22 01:49:53;;;;;;;4.53;2.95;;;;;21.00;101263.00;;;;5049991;28;20594;-76
2022/06/22 01:52:44;;;;;;;6.10;3.00;;;;;21.00;101261.00;;;;5050367;28;20195;-76
2022/06/22 01:55:17;;;;;;;4.25;3.33;;;;;21.00;101249.00;;;;5035439;28;20620;-75
2022/06/22 01:57:50;;;;;;;3.38;3.08;;;;;21.00;101246.00;;;;5040777;28;20231;-76
2022/06/22 02:00:21;;;;;;;5.43;3.47;;;;;21.00;101241.00;;;;5050763;28;20203;-75
2022/06/22 02:02:53;;;;;;;4.68;3.50;;;;;21.00;101251.00;;;;5050101;28;20196;-75
2022/06/22 02:05:26;;;;;;;5.57;3.10;;;;;20.90;101259.00;;;;5046460;28;20198;-75
2022/06/22 02:08:01;;;;;;;3.92;3.53;;;;;20.90;101260.00;;;;5035158;28;20199;-76
2022/06/22 02:10:43;;;;;;;6.15;3.33;;;;;20.80;101263.00;;;;5048883;28;20191;-76
2022/06/22 02:13:23;;;;;;;3.65;3.22;;;;;20.80;101266.00;;;;5045506;28;20205;-76
2022/06/22 02:16:00;;;;;;;6.30;3.05;;;;;20.80;101271.00;;;;5036243;28;20208;-76
2022/06/22 02:18:34;;;;;;;9.52;3.85;;;;;20.80;101274.00;;;;5047985;28;20229;-76
2022/06/22 02:21:11;;;;;;;6.00;3.25;;;;;20.80;101271.00;;;;5047267;28;20202;-76
2022/06/22 02:23:39;;;;;;;4.45;3.25;;;;;20.80;101277.00;;;;5048371;28;20592;-76
2022/06/22 02:26:17;;;;;;;5.20;3.53;;;;;20.70;101266.00;;;;5047152;28;20231;-76
2022/06/22 02:28:46;;;;;;;4.85;4.15;;;;;20.70;101257.00;;;;5045796;28;20318;-76
2022/06/22 02:31:17;;;;;;;5.60;4.03;;;;;20.70;101256.00;;;;5036096;28;20658;-76
2022/06/22 02:33:48;;;;;;;5.45;3.70;;;;;20.70;101244.00;;;;5045274;28;20210;-76
2022/06/22 02:36:16;;;;;;;4.47;3.50;;;;;20.70;101237.00;;;;5039595;28;20206;-75
2022/06/22 02:38:46;;;;;;;3.72;3.20;;;;;20.70;101225.00;;;;5047339;28;20227;-75
2022/06/22 02:46:46;;;;;;;4.93;3.47;;;;;20.60;101216.00;;;;5032287;28;20203;-75
2022/06/22 02:49:20;;;;;;;4.10;3.70;;;;;20.60;101204.00;;;;5029677;28;20192;-75
2022/06/22 02:51:49;;;;;;;4.53;3.60;;;;;20.50;101179.00;;;;5045101;28;20195;-76
2022/06/22 02:54:25;;;;;;;6.18;3.70;;;;;20.50;101188.00;;;;5029895;28;20196;-75
2022/06/22 02:57:13;;;;;;;4.78;3.83;;;;;20.50;101195.00;;;;5038659;28;20214;-76
2022/06/22 02:59:41;;;;;;;8.45;3.92;;;;;20.50;101196.00;;;;5044958;28;21737;-75
2022/06/22 03:02:10;;;;;;;6.13;3.72;;;;;20.40;101196.00;;;;5046622;28;20749;-75
2022/06/22 03:04:38;;;;;;;5.88;3.50;;;;;20.40;101188.00;;;;5040447;28;20212;-76
2022/06/22 03:07:06;;;;;;;5.07;3.85;;;;;20.40;101185.00;;;;5032996;28;20733;-76
2022/06/22 03:09:34;;;;;;;5.00;4.35;;;;;20.40;101182.00;;;;5047892;28;20560;-75
2022/06/22 03:12:02;;;;;;;4.32;3.90;;;;;20.40;101181.00;;;;5047668;28;20195;-76
2022/06/22 03:14:32;;;;;;;5.65;3.92;;;;;20.30;101182.00;;;;5047892;28;20199;-76
2022/06/22 03:17:03;;;;;;;4.88;3.90;;;;;20.30;101187.00;;;;5047963;28;20204;-75
2022/06/22 03:19:39;;;;;;;4.63;3.63;;;;;20.30;101187.00;;;;5038932;28;20191;-76
2022/06/22 03:22:06;;;;;;;3.95;3.55;;;;;20.30;101189.00;;;;5039016;28;20669;-75
2022/06/22 03:24:40;;;;;;;4.32;3.53;;;;;20.30;101191.00;;;;5048667;28;20259;-76
2022/06/22 03:27:15;;;;;;;4.97;3.55;;;;;20.20;101203.00;;;;5047330;28;20206;-76
2022/06/22 03:29:48;;;;;;;4.38;3.17;;;;;20.20;101196.00;;;;5042517;28;20196;-76
2022/06/22 03:32:20;;;;;;;4.95;3.50;;;;;20.20;101200.00;;;;5033902;28;20196;-76
2022/06/22 03:34:54;;;;;;;5.80;3.35;;;;;20.20;101197.00;;;;5048488;28;20214;-76
2022/06/22 03:37:27;;;;;;;4.63;3.42;;;;;20.20;101191.00;;;;5046917;28;20215;-76
2022/06/22 03:39:59;;;;;;;5.32;3.65;;;;;20.20;101192.00;;;;5041652;28;20443;-76
2022/06/22 03:42:30;;;;;;;5.50;3.55;;;;;20.20;101199.00;;;;5049260;28;20235;-77
2022/06/22 03:45:02;;;;;;;4.70;3.60;;;;;20.20;101207.00;;;;5048064;28;20242;-76
2022/06/22 03:47:35;;;;;;;6.22;4.00;;;;;20.20;101209.00;;;;5047299;28;20207;-75
2022/06/22 03:50:10;;;;;;;4.13;3.17;;;;;20.10;101209.00;;;;5045368;28;20196;-76
2022/06/22 03:52:44;;;;;;;3.40;3.10;;;;;20.20;101207.00;;;;5035169;28;20187;-76
2022/06/22 03:55:17;;;;;;;3.80;3.13;;;;;20.20;101210.00;;;;5047314;28;20215;-76
2022/06/22 03:57:49;;;;;;;6.50;4.38;;;;;20.20;101205.00;;;;5047706;28;20230;-76
2022/06/22 04:00:18;;;;;;;5.07;3.70;;;;;20.20;101208.00;;;;5047755;28;20210;-76
2022/06/22 04:02:45;;;;;;;5.55;3.40;;;;;20.20;101202.00;;;;5047161;28;20203;-76
2022/06/22 04:05:18;;;;;;;6.78;3.55;;;;;20.20;101212.00;;;;5028157;28;20196;-76
2022/06/22 04:07:46;;;;;;;7.30;3.85;;;;;20.20;101210.00;;;;5033349;28;20684;-76
2022/06/22 04:10:30;;;;;;;3.95;3.40;;;;;20.10;101212.00;;;;5043907;28;20199;-76
2022/06/22 04:13:00;;;;;;;5.07;3.85;;;;;20.20;101215.00;;;;5044864;28;20207;-76
2022/06/22 04:15:33;;;;;;;7.10;3.75;;;;;20.20;101212.00;;;;5047235;28;20617;-77
2022/06/22 04:18:02;;;;;;;5.50;3.63;;;;;20.30;101212.00;;;;5046054;28;20226;-77
2022/06/22 04:20:50;;;;;;;4.95;3.20;;;;;20.20;101199.00;;;;5041621;28;20199;-75
2022/06/22 04:23:21;;;;;;;4.65;3.28;;;;;20.30;101199.00;;;;5037590;28;20223;-76
2022/06/22 04:25:50;;;;;;;4.78;3.33;;;;;20.30;101205.00;;;;5041012;28;20193;-76
2022/06/22 04:28:20;;;;;;;4.65;3.33;;;;;20.30;101202.00;;;;5043497;28;20216;-76
2022/06/22 04:30:51;;;;;;;4.38;3.33;;;;;20.30;101210.00;;;;5047060;28;20198;-76
2022/06/22 04:33:23;;;;;;;5.00;3.88;;;;;20.30;101206.00;;;;5047333;28;20563;-76
2022/06/22 04:35:56;;;;;;;5.32;3.58;;;;;20.40;101210.00;;;;5028420;28;20224;-76
2022/06/22 04:38:30;;;;;;;3.58;2.78;;;;;20.40;101210.00;;;;5038305;28;20227;-76
2022/06/22 04:41:05;;;;;;;5.25;3.50;;;;;20.40;101203.00;;;;5047404;28;20210;-76
2022/06/22 04:43:33;;;;;;;3.50;3.20;;;;;20.50;101206.00;;;;5044833;28;20231;-76
2022/06/22 04:46:00;;;;;;;4.07;3.53;;;;;20.50;101215.00;;;;5028081;28;20203;-76
2022/06/22 04:48:31;;;;;;;5.90;3.80;;;;;20.50;101219.00;;;;5047130;28;20216;-75
2022/06/22 04:51:03;;;;;;;4.45;3.67;;;;;20.60;101222.00;;;;5046921;28;20198;-76
2022/06/22 04:53:35;;;;;;;5.43;3.60;;;;;20.60;101214.00;;;;5047859;28;20210;-75
2022/06/22 04:56:07;;;;;;;5.28;3.58;;;;;20.60;101220.00;;;;5035279;28;20200;-76
2022/06/22 04:58:42;;;;;;;4.00;3.58;;;;;20.70;101220.00;;;;5044663;28;20570;-75
2022/06/22 05:01:16;;;;;;;4.13;3.17;;;;;20.70;101225.00;;;;5042678;28;20210;-76
2022/06/22 05:03:44;;;;;;;4.68;3.83;;;;;20.80;101222.00;;;;5035049;28;20205;-77
2022/06/22 05:06:18;;;;;;;4.78;3.38;;;;;20.80;101230.00;;;;5027761;28;20550;-76
2022/06/22 05:08:53;;;;;;;7.22;4.07;;;;;20.80;101234.00;;;;5041300;28;20226;-76
2022/06/22 05:11:24;;;;;;;5.78;3.88;;;;;20.90;101248.00;;;;5039299;28;20291;-76
2022/06/22 05:13:55;;;;;;;5.40;4.00;;;;;21.00;101245.00;;;;5036200;28;20199;-76
2022/06/22 05:16:25;;;;;;;8.45;4.32;;;;;21.00;101246.00;;;;5044518;28;20192;-76
2022/06/22 05:18:54;;;;;;;5.10;3.78;;;;;21.10;101242.00;;;;5041201;28;20224;-77
2022/06/22 05:21:37;;;;;;;5.28;3.65;;;;;21.00;101253.00;;;;5041095;28;20192;-77
2022/06/22 05:24:09;;;;;;;5.20;3.85;;;;;21.20;101256.00;;;;5046046;28;20223;-76
2022/06/22 05:26:37;;;;;;;6.10;3.90;;;;;21.30;101253.00;;;;5044536;28;20200;-77
2022/06/22 05:29:08;;;;;;;5.22;4.20;;;;;21.30;101255.00;;;;5045604;28;20568;-77
2022/06/22 05:31:38;;;;;;;4.47;3.92;;;;;21.40;101249.00;;;;5045917;28;20191;-77
2022/06/22 05:34:09;;;;;;;4.70;3.78;;;;;21.40;101260.00;;;;5050696;28;20199;-76
2022/06/22 05:36:44;;;;;;;4.85;3.75;;;;;21.50;101257.00;;;;5034580;28;20247;-77
2022/06/22 05:39:12;;;;;;;5.35;3.65;;;;;21.60;101250.00;;;;5049425;28;20223;-78
2022/06/22 05:41:43;;;;;;;4.40;3.70;;;;;21.60;101264.00;;;;5049234;28;20576;-76
2022/06/22 05:44:12;;;;;;;4.22;3.83;;;;;21.70;101269.00;;;;5048799;28;20219;-77
2022/06/22 05:46:44;;;;;;;7.57;3.53;;;;;21.80;101278.00;;;;5046634;28;20204;-76
2022/06/22 05:49:16;;;;;;;5.35;3.80;;;;;21.80;101283.00;;;;5047385;28;20203;-79
2022/06/22 05:51:54;;;;;;;5.50;3.25;;;;;21.90;101284.00;;;;5049828;28;20295;-79
2022/06/22 05:54:26;;;;;;;4.50;3.17;;;;;22.00;101275.00;;;;5046889;28;20214;-79
2022/06/22 05:57:03;;;;;;;3.45;3.03;;;;;22.00;101285.00;;;;5048574;28;20191;-76
2022/06/22 05:59:38;;;;;;;4.03;2.80;;;;;22.10;101288.00;;;;5048286;28;20699;-78
2022/06/22 06:02:13;;;;;;;3.65;3.10;;;;;22.20;101272.00;;;;5046839;28;20294;-77
2022/06/22 06:04:47;;;;;;;6.47;3.60;;;;;22.30;101272.00;;;;5049938;28;20214;-75
2022/06/22 06:07:23;;;;;;;4.43;2.72;;;;;22.40;101284.00;;;;5048937;28;20188;-75
2022/06/22 06:09:51;;;;;;;4.03;3.33;;;;;22.50;101277.00;;;;5049946;28;20207;-75
2022/06/22 06:12:23;;;;;;;3.33;2.95;;;;;22.60;101279.00;;;;5037161;28;20232;-75
2022/06/22 06:14:53;;;;;;;4.00;2.83;;;;;22.60;101275.00;;;;5044325;28;20206;-76
2022/06/22 06:17:25;;;;;;;3.22;2.65;;;;;22.70;101273.00;;;;5048724;28;20200;-75
2022/06/22 06:19:55;;;;;;;4.38;3.53;;;;;22.80;101278.00;;;;5050180;28;20227;-76
2022/06/22 06:22:25;;;;;;;3.63;2.60;;;;;22.90;101280.00;;;;5049868;28;20196;-76
2022/06/22 06:27:43;;;;;;;3.70;2.88;;;;;23.10;101275.00;;;;5043778;28;20229;-75
2022/06/22 06:30:16;;;;;;;5.63;3.25;;;;;23.10;101275.00;;;;5035924;28;20219;-76
2022/06/22 06:32:51;;;;;;;5.18;2.60;;;;;23.20;101273.00;;;;5050339;28;20187;-75
2022/06/22 06:35:27;;;;;;;5.07;2.78;;;;;23.30;101277.00;;;;5049197;28;20575;-75
2022/06/22 06:38:02;;;;;;;3.08;2.25;;;;;23.40;101280.00;;;;5046254;28;20292;-76
2022/06/22 06:40:36;;;;;;;4.85;2.40;;;;;23.50;101279.00;;;;5046479;28;20222;-75
2022/06/22 06:43:31;;;;;;;3.83;2.47;;;;;23.50;101280.00;;;;5047683;28;20227;-76
2022/06/22 06:46:00;;;;;;;3.25;2.35;;;;;23.70;101280.00;;;;5044576;28;20203;-76
2022/06/22 06:48:29;;;;;;;4.00;1.98;;;;;23.80;101293.00;;;;5049008;28;20751;-77
2022/06/22 06:51:00;;;;;;;4.13;2.30;;;;;23.80;101293.00;;;;5042007;28;20203;-77
2022/06/22 06:53:35;;;;;;;4.55;2.63;;;;;23.90;101286.00;;;;5045041;28;20666;-76
2022/06/22 06:56:07;;;;;;;2.88;2.00;;;;;24.00;101286.00;;;;5046684;28;20211;-77
2022/06/22 06:58:41;;;;;;;3.15;2.42;;;;;24.10;101280.00;;;;5047444;28;20226;-77
2022/06/22 07:01:17;;;;;;;6.97;2.28;;;;;24.20;101270.00;;;;5046701;28;20207;-77
2022/06/22 07:03:46;;;;;;;3.60;2.05;;;;;24.30;101272.00;;;;5046039;28;20285;-76
2022/06/22 07:06:13;;;;;;;3.67;2.17;;;;;24.40;101275.00;;;;5047672;28;20207;-77
2022/06/22 07:08:47;;;;;;;4.53;2.15;;;;;24.50;101271.00;;;;5048927;28;20199;-76
2022/06/22 07:11:31;;;;;;;5.93;2.20;;;;;24.60;101269.00;;;;5046833;28;20184;-77
2022/06/22 07:14:04;;;;;;;3.35;1.92;;;;;24.70;101267.00;;;;5042716;28;20196;-77
2022/06/22 07:16:31;;;;;;;3.22;2.20;;;;;24.80;101260.00;;;;5047035;28;20210;-77
2022/06/22 07:19:03;;;;;;;3.83;2.17;;;;;24.90;101264.00;;;;5045658;28;20224;-77
2022/06/22 07:21:40;;;;;;;2.53;2.28;;;;;25.00;101266.00;;;;5045962;28;20195;-78
2022/06/22 07:24:15;;;;;;;2.70;2.20;;;;;25.20;101272.00;;;;5045409;28;20207;-77
2022/06/22 07:26:58;;;;;;;3.25;2.25;;;;;25.20;101264.00;;;;5045468;28;20199;-77
2022/06/22 07:29:31;;;;;;;2.45;2.15;;;;;25.40;101273.00;;;;5048217;28;20206;-77
2022/06/22 07:32:05;;;;;;;2.83;2.55;;;;;25.50;101275.00;;;;5048807;28;20203;-77
2022/06/22 07:34:38;;;;;;;4.45;2.40;;;;;25.60;101275.00;;;;5048089;28;20214;-77
2022/06/22 07:37:15;;;;;;;3.67;1.98;;;;;25.70;101272.00;;;;5041802;28;20203;-76
2022/06/22 07:39:50;;;;;;;2.60;2.40;;;;;25.80;101279.00;;;;5045942;28;20296;-76
2022/06/22 07:42:18;;;;;;;3.08;2.65;;;;;26.00;101276.00;;;;5045718;28;20195;-76
2022/06/22 07:44:45;;;;;;;3.58;2.85;;;;;26.10;101270.00;;;;5046944;28;20222;-78
2022/06/22 07:47:18;;;;;;;5.35;2.85;;;;;26.20;101267.00;;;;5046625;28;20285;-77
2022/06/22 07:49:50;;;;;;;4.53;2.22;;;;;26.30;101262.00;;;;5046673;28;20200;-80
2022/06/22 07:52:22;;;;;;;3.05;2.25;;;;;26.40;101265.00;;;;5045548;28;20204;-79
2022/06/22 07:54:54;;;;;;;4.22;1.95;;;;;26.50;101267.00;;;;5046323;28;20607;-78
2022/06/22 07:57:28;;;;;;;2.72;2.20;;;;;26.60;101259.00;;;;5047525;28;20195;-79
2022/06/22 08:00:02;;;;;;;3.80;2.38;;;;;26.70;101257.00;;;;5043281;28;20727;-77
2022/06/22 08:02:38;;;;;;;4.05;1.90;;;;;26.70;101252.00;;;;5045767;28;20211;-76
2022/06/22 08:05:09;;;;;;;1.65;1.55;;;;;26.90;101255.00;;;;5042369;28;20218;-76
2022/06/22 08:07:43;;;;;;;3.92;2.20;;;;;26.90;101255.00;;;;5047338;28;20204;-77
2022/06/22 08:10:17;;;;;;;3.55;2.20;;;;;27.00;101253.00;;;;5042910;28;20200;-77
2022/06/22 08:13:00;;;;;;;2.28;2.08;;;;;27.10;101247.00;;;;5045815;28;20286;-77
2022/06/22 08:15:31;;;;;;;2.65;1.98;;;;;27.30;101258.00;;;;5045121;28;20200;-78
2022/06/22 08:18:01;;;;;;;4.45;2.55;;;;;27.40;101258.00;;;;5045321;28;20199;-79
2022/06/22 08:20:31;;;;;;;2.92;1.90;;;;;27.50;101252.00;;;;5047143;28;20225;-80
2022/06/22 08:23:01;;;;;;;2.33;2.03;;;;;27.60;101260.00;;;;5043425;28;20199;-78
2022/06/22 08:25:31;;;;;;;3.75;2.08;;;;;27.70;101265.00;;;;5042963;28;20291;-78
2022/06/22 08:28:00;;;;;;;2.22;1.80;;;;;27.90;101269.00;;;;5045683;28;20207;-78
2022/06/22 08:30:27;;;;;;;2.97;2.38;;;;;28.00;101261.00;;;;5045498;28;20199;-79
2022/06/22 08:33:04;;;;;;;2.92;2.05;;;;;28.00;101267.00;;;;5047383;28;20188;-77
2022/06/22 08:35:36;;;;;;;2.30;1.55;;;;;28.20;101263.00;;;;5046263;28;20204;-77
2022/06/22 08:38:07;;;;;;;2.03;1.58;;;;;28.30;101264.00;;;;5047648;28;20203;-77
2022/06/22 08:40:41;;;;;;;2.03;1.90;;;;;28.40;101253.00;;;;5047389;28;20219;-78
2022/06/22 08:43:19;;;;;;;1.77;1.65;;;;;28.50;101255.00;;;;5044530;28;20258;-77
2022/06/22 08:46:25;;;;;;;8.35;1.90;;;;;28.50;101268.00;;;;5052234;28;20211;-77
2022/06/22 08:49:11;;;;;;;2.13;1.40;;;;;28.70;101270.00;;;;5026270;28;21076;-77
2022/06/22 08:52:03;;;;;;;3.90;1.70;;;;;28.80;101270.00;;;;5043357;28;20198;-77
2022/06/22 08:55:15;;;;;;;1.50;1.40;;;;;28.90;101275.00;;;;5044028;28;20204;-77
2022/06/22 08:58:03;;;;;;;4.03;2.00;;;;;29.00;101280.00;;;;4961496;28;20210;-77
2022/06/22 09:00:39;;;;;;;1.85;1.58;;;;;29.10;101280.00;;;;5045402;28;20724;-77
2022/06/22 09:03:34;;;;;;;1.52;1.35;;;;;29.10;101285.00;;;;5047076;28;20207;-78
2022/06/22 09:06:20;;;;;;;5.22;1.50;;;;;29.30;101278.00;;;;5048659;28;20210;-77
2022/06/22 09:09:17;;;;;;;2.45;1.67;;;;;29.30;101279.00;;;;5051991;28;20187;-78
2022/06/22 09:11:57;;;;;;;2.47;1.30;;;;;29.50;101273.00;;;;5050056;28;20215;-78
2022/06/22 09:15:03;;;;;;;2.35;1.42;;;;;29.60;101292.00;;;;5051669;28;20199;-78
2022/06/22 09:18:16;;;;;;;2.50;1.42;;;;;29.70;101297.00;;;;5048043;28;20214;-77
2022/06/22 09:21:07;;;;;;;1.80;1.17;;;;;29.80;101296.00;;;;4987424;28;20380;-77
2022/06/22 09:23:41;;;;;;;1.92;1.02;;;;;29.90;101286.00;;;;4987987;28;20543;-78
2022/06/22 09:26:19;;;;;;;1.35;0.90;;;;;30.00;101289.00;;;;5035551;28;20203;-77
2022/06/22 09:28:54;;;;;;;2.15;1.35;;;;;30.10;101287.00;;;;5051185;28;20203;-78
2022/06/22 09:31:52;;;;;;;1.92;1.10;;;;;30.20;101284.00;;;;5049855;28;20199;-79
2022/06/22 09:34:35;;;;;;;1.83;1.33;;;;;30.30;101285.00;;;;5048228;28;20603;-79
2022/06/22 09:37:26;;;;;;;1.40;1.30;;;;;30.40;101280.00;;;;5050977;28;20203;-79
2022/06/22 09:40:31;;;;;;;1.38;1.27;;;;;30.40;101273.00;;;;5049253;28;20223;-78
2022/06/22 09:43:24;;;;;;;2.80;1.35;;;;;30.60;101277.00;;;;5019171;28;20223;-79
2022/06/22 09:46:07;;;;;;;1.30;1.13;;;;;30.70;101277.00;;;;5050634;28;20249;-79
2022/06/22 09:49:07;;;;;;;3.38;1.90;;;;;30.70;101275.00;;;;5049912;28;20274;-78
2022/06/22 09:51:57;;;;;;;3.55;1.70;;;;;30.80;101273.00;;;;5015904;28;20425;-78
2022/06/22 09:58:08;;;;;;;1.85;1.30;;;;;30.80;101271.00;;;;5023081;28;20239;-77
2022/06/22 10:00:44;;;;;;;2.55;1.58;;;;;30.90;101270.00;;;;5049586;28;20220;-77
2022/06/22 10:03:39;;;;;;;3.97;1.45;;;;;30.90;101278.00;;;;5049133;28;20199;-77
2022/06/22 10:06:39;;;;;;;2.05;1.30;;;;;30.90;101279.00;;;;5033510;28;20206;-77
2022/06/22 10:09:35;;;;;;;2.13;1.40;;;;;31.00;101287.00;;;;5032136;28;20200;-78
2022/06/22 10:12:19;;;;;;;2.25;1.30;;;;;31.10;101292.00;;;;5044277;28;20222;-77
2022/06/22 10:15:12;;;;;;;1.60;1.05;;;;;31.10;101284.00;;;;5049919;28;20278;-78
2022/06/22 10:18:16;;;;;;;1.60;1.23;;;;;31.20;101289.00;;;;5049211;28;20274;-79
2022/06/22 10:21:01;;;;;;;1.00;0.90;;;;;31.20;101290.00;;;;5036575;28;20231;-80
2022/06/22 10:23:52;;;;;;;5.63;1.42;;;;;31.30;101293.00;;;;5048943;28;20226;-80
2022/06/22 10:26:36;;;;;;;1.70;0.82;;;;;31.30;101288.00;;;;5043731;28;20607;-80
2022/06/22 10:29:30;;;;;;;1.80;0.88;;;;;31.30;101285.00;;;;5048080;28;20195;-80
2022/06/22 10:32:09;;;;;;;1.15;0.93;;;;;31.40;101280.00;;;;5049573;28;20195;-80
2022/06/22 10:34:54;;;;;;;1.95;1.00;;;;;31.40;101282.00;;;;5049888;28;20218;-80
2022/06/22 10:37:51;;;;;;;3.83;1.77;;;;;31.40;101282.00;;;;5050282;28;20199;-80
2022/06/22 10:46:34;;;;;;;1.65;1.17;;;;;31.50;101279.00;;;;5030632;28;20206;-79
2022/06/22 10:49:19;;;;;;;1.83;1.00;;;;;31.50;101276.00;;;;5047094;28;20199;-80
2022/06/22 10:52:17;;;;;;;1.60;0.90;;;;;31.40;101275.00;;;;5047733;28;20203;-79
2022/06/22 10:55:08;;;;;;;1.58;0.93;;;;;31.40;101269.00;;;;5048690;28;20241;-80
2022/06/22 10:58:00;;;;;;;3.72;1.30;;;;;31.50;101273.00;;;;5049076;28;20203;-79
2022/06/22 11:00:41;;;;;;;1.27;0.98;;;;;31.40;101267.00;;;;5044915;28;20238;-80
2022/06/22 11:03:42;;;;;;;1.42;1.20;;;;;31.40;101275.00;;;;5048030;28;20198;-80
2022/06/22 11:06:43;;;;;;;2.28;1.13;;;;;31.40;101260.00;;;;5049228;28;20206;-80
2022/06/22 11:09:34;;;;;;;2.53;1.20;;;;;31.40;101258.00;;;;5048328;28;21051;-81
2022/06/22 11:12:16;;;;;;;3.65;1.10;;;;;31.40;101272.00;;;;5048852;28;20559;-77
2022/06/22 11:15:07;;;;;;;1.50;1.02;;;;;31.40;101258.00;;;;5049162;28;20200;-78
2022/06/22 11:17:58;;;;;;;1.73;1.10;;;;;31.30;101257.00;;;;5035009;28;20572;-78
2022/06/22 11:20:50;;;;;;;2.47;1.13;;;;;31.30;101259.00;;;;5028763;28;20232;-80
2022/06/22 11:23:31;;;;;;;1.48;1.02;;;;;31.40;101254.00;;;;5029160;28;20211;-81
2022/06/22 11:32:40;;;;;;;2.20;1.10;;;;;31.40;101248.00;;;;5047999;28;20202;-78
2022/06/22 11:35:32;;;;;;;3.58;1.38;;;;;31.30;101244.00;;;;5038139;28;20208;-78
2022/06/22 11:38:20;;;;;;;1.85;1.60;;;;;31.40;101244.00;;;;5047500;28;20192;-78
2022/06/22 11:40:59;;;;;;;1.15;0.88;;;;;31.40;101244.00;;;;5048903;28;20238;-78
2022/06/22 11:43:39;;;;;;;2.08;1.17;;;;;31.30;101242.00;;;;5047439;28;20227;-80
2022/06/22 11:46:16;;;;;;;2.47;1.10;;;;;31.30;101236.00;;;;5048376;28;20203;-77
2022/06/22 11:49:17;;;;;;;1.27;1.10;;;;;31.30;101248.00;;;;5047296;28;20202;-80
2022/06/22 11:52:13;;;;;;;3.47;1.63;;;;;31.30;101236.00;;;;5044742;28;20199;-79
2022/06/22 11:55:14;;;;;;;1.65;1.10;;;;;31.30;101236.00;;;;5045640;28;20199;-79
2022/06/22 11:58:09;;;;;;;2.38;1.20;;;;;31.30;101226.00;;;;5048788;28;20200;-79
2022/06/22 12:00:44;;;;;;;1.63;1.50;;;;;31.40;101236.00;;;;5047210;28;20223;-79
2022/06/22 12:03:44;;;;;;;1.77;1.10;;;;;31.40;101230.00;;;;5046955;28;20576;-80
2022/06/22 12:06:35;;;;;;;2.50;1.15;;;;;31.40;101235.00;;;;5048090;28;20210;-80
2022/06/22 12:09:12;;;;;;;1.63;1.38;;;;;31.50;101222.00;;;;5044219;28;20199;-79
2022/06/22 12:11:49;;;;;;;2.30;1.23;;;;;31.50;101232.00;;;;5046138;28;20202;-79
2022/06/22 12:17:39;;;;;;;1.50;1.40;;;;;31.50;101221.00;;;;5047201;28;20240;-81
2022/06/22 12:20:17;;;;;;;2.55;1.35;;;;;31.60;101219.00;;;;5046497;28;20235;-79
2022/06/22 12:22:51;;;;;;;1.77;1.45;;;;;31.60;101223.00;;;;5047743;28;20736;-78
2022/06/22 12:25:50;;;;;;;1.83;1.42;;;;;31.50;101214.00;;;;5046552;28;20211;-78
2022/06/22 12:28:34;;;;;;;4.97;1.48;;;;;31.50;101211.00;;;;5046521;28;20286;-78
2022/06/22 12:31:09;;;;;;;4.30;1.40;;;;;31.50;101213.00;;;;5047550;28;20210;-77
2022/06/22 12:33:41;;;;;;;2.00;1.27;;;;;31.50;101217.00;;;;5034231;28;20700;-79
2022/06/22 12:36:14;;;;;;;1.67;1.23;;;;;31.50;101215.00;;;;5042735;28;20192;-77
2022/06/22 12:38:45;;;;;;;2.00;1.20;;;;;31.50;101212.00;;;;5045873;28;20290;-79
2022/06/22 12:41:28;;;;;;;3.95;1.25;;;;;31.40;101201.00;;;;5049092;28;20324;-79
2022/06/22 12:44:24;;;;;;;1.20;1.10;;;;;31.40;101204.00;;;;5051158;28;20230;-78
2022/06/22 12:47:12;;;;;;;2.15;1.23;;;;;31.30;101202.00;;;;5051458;28;20564;-76
2022/06/22 12:49:54;;;;;;;2.40;1.52;;;;;31.30;101198.00;;;;5051776;28;20199;-79
2022/06/22 12:52:27;;;;;;;1.67;1.45;;;;;31.30;101201.00;;;;5050603;28;20583;-78
2022/06/22 12:54:59;;;;;;;4.07;1.98;;;;;31.30;101197.00;;;;5048533;28;20195;-78
2022/06/22 12:57:34;;;;;;;1.92;1.50;;;;;31.30;101191.00;;;;5051194;28;20200;-78
2022/06/22 13:00:08;;;;;;;1.48;1.10;;;;;31.30;101187.00;;;;5050070;28;20414;-78
2022/06/22 13:02:39;;;;;;;1.27;1.10;;;;;31.30;101191.00;;;;5050624;28;20200;-78
2022/06/22 13:05:10;;;;;;;3.05;1.67;;;;;31.30;101181.00;;;;5050201;28;20667;-78
2022/06/22 13:07:43;;;;;;;1.77;1.65;;;;;31.20;101186.00;;;;5049473;28;20195;-77
2022/06/22 13:10:15;;;;;;;1.75;1.58;;;;;31.20;101177.00;;;;5043404;28;20207;-78
2022/06/22 13:12:50;;;;;;;3.63;1.55;;;;;31.20;101178.00;;;;5049909;28;20309;-78
2022/06/22 13:15:22;;;;;;;2.05;1.50;;;;;31.10;101184.00;;;;5050804;28;20264;-78
2022/06/22 13:17:58;;;;;;;2.05;1.23;;;;;31.10;101175.00;;;;5048877;28;20202;-77
2022/06/22 13:20:48;;;;;;;2.58;1.50;;;;;31.00;101170.00;;;;5050744;28;20215;-78
2022/06/22 13:23:31;;;;;;;2.20;1.30;;;;;31.00;101152.00;;;;5049858;28;20196;-80
2022/06/22 13:26:07;;;;;;;3.03;1.65;;;;;31.00;101152.00;;;;5049518;28;20199;-78